Terminal Aerodrome Forecast
Issued by NWS

Home | Current Version | Previous Version | Text Only | Print | Product List | Glossary On
Versions: 1 2 3 4 5 6 7 8 9 10 11 12 13 14 15 16
000
FTUS44 KLIX 302321
TAFMCB
TAF
KMCB 302321Z 3100/3124 23004KT P6SM BKN025 OVC045
      TEMPO 3100/3104 VRB14G30KT 1SM TSRA BR OVC025CB
     FM310400 VRB02KT P6SM SCT030 BKN200
     FM310900 25001KT 3SM BR BKN200
     FM311400 00000KT P6SM SCT025
     FM311600 27006KT 5SM -RA BKN030
      TEMPO 3118/3122 VRB15G30KT 1SM TSRA BKN015CB OVC030=

USA.gov is the U.S. government's official web portal to all federal, state and local government web resources and services.